sensor_id;sensor_type;location;lat;lon;timestamp;P1;durP1;ratioP1;P2;durP2;ratioP2
19235;SDS011;9752;54.270;12.470;2024-03-08T00:01:13;28.50;;;15.33;;
19235;SDS011;9752;54.270;12.470;2024-03-08T00:06:16;25.27;;;15.00;;
19235;SDS011;9752;54.270;12.470;2024-03-08T00:11:19;21.17;;;15.20;;
19235;SDS011;9752;54.270;12.470;2024-03-08T00:16:21;36.03;;;18.17;;
19235;SDS011;9752;54.270;12.470;2024-03-08T00:21:23;31.37;;;16.63;;
19235;SDS011;9752;54.270;12.470;2024-03-08T00:26:28;26.73;;;14.57;;
19235;SDS011;9752;54.270;12.470;2024-03-08T00:31:30;24.53;;;16.43;;
19235;SDS011;9752;54.270;12.470;2024-03-08T00:36:31;31.67;;;17.20;;
19235;SDS011;9752;54.270;12.470;2024-03-08T00:41:34;32.30;;;18.17;;
19235;SDS011;9752;54.270;12.470;2024-03-08T00:46:36;28.07;;;14.03;;
19235;SDS011;9752;54.270;12.470;2024-03-08T00:51:38;31.57;;;16.73;;
19235;SDS011;9752;54.270;12.470;2024-03-08T00:56:41;37.10;;;16.97;;
19235;SDS011;9752;54.270;12.470;2024-03-08T01:01:42;27.83;;;16.53;;
19235;SDS011;9752;54.270;12.470;2024-03-08T01:06:44;25.90;;;14.97;;
19235;SDS011;9752;54.270;12.470;2024-03-08T01:11:49;23.77;;;13.97;;
19235;SDS011;9752;54.270;12.470;2024-03-08T01:16:51;34.53;;;18.50;;
19235;SDS011;9752;54.270;12.470;2024-03-08T01:21:53;32.47;;;16.30;;
19235;SDS011;9752;54.270;12.470;2024-03-08T01:26:58;24.13;;;14.00;;
19235;SDS011;9752;54.270;12.470;2024-03-08T01:31:59;29.13;;;16.23;;
19235;SDS011;9752;54.270;12.470;2024-03-08T01:37:01;29.10;;;17.40;;
19235;SDS011;9752;54.270;12.470;2024-03-08T01:42:04;26.87;;;15.63;;
19235;SDS011;9752;54.270;12.470;2024-03-08T01:47:06;30.97;;;15.90;;
19235;SDS011;9752;54.270;12.470;2024-03-08T01:52:08;38.97;;;16.80;;
19235;SDS011;9752;54.270;12.470;2024-03-08T01:57:12;32.77;;;16.57;;
19235;SDS011;9752;54.270;12.470;2024-03-08T02:02:14;31.17;;;16.23;;
19235;SDS011;9752;54.270;12.470;2024-03-08T02:07:20;35.53;;;17.07;;
19235;SDS011;9752;54.270;12.470;2024-03-08T02:12:23;27.53;;;16.40;;
19235;SDS011;9752;54.270;12.470;2024-03-08T02:17:25;34.70;;;19.53;;
19235;SDS011;9752;54.270;12.470;2024-03-08T02:22:28;37.43;;;19.50;;
19235;SDS011;9752;54.270;12.470;2024-03-08T02:27:30;37.53;;;21.53;;
19235;SDS011;9752;54.270;12.470;2024-03-08T02:32:31;51.67;;;26.77;;
19235;SDS011;9752;54.270;12.470;2024-03-08T02:37:35;64.83;;;29.30;;
19235;SDS011;9752;54.270;12.470;2024-03-08T02:42:36;70.47;;;31.30;;
19235;SDS011;9752;54.270;12.470;2024-03-08T02:47:38;67.83;;;29.63;;
19235;SDS011;9752;54.270;12.470;2024-03-08T02:52:41;55.70;;;28.40;;
19235;SDS011;9752;54.270;12.470;2024-03-08T02:57:43;63.40;;;30.87;;
19235;SDS011;9752;54.270;12.470;2024-03-08T03:02:46;63.63;;;31.40;;
19235;SDS011;9752;54.270;12.470;2024-03-08T03:07:49;57.83;;;28.80;;
19235;SDS011;9752;54.270;12.470;2024-03-08T03:12:50;54.73;;;27.97;;
19235;SDS011;9752;54.270;12.470;2024-03-08T03:17:52;72.53;;;31.63;;
19235;SDS011;9752;54.270;12.470;2024-03-08T03:22:56;59.90;;;29.17;;
19235;SDS011;9752;54.270;12.470;2024-03-08T03:27:58;55.10;;;26.77;;
19235;SDS011;9752;54.270;12.470;2024-03-08T03:33:00;59.83;;;29.37;;
19235;SDS011;9752;54.270;12.470;2024-03-08T03:38:03;53.93;;;27.40;;
19235;SDS011;9752;54.270;12.470;2024-03-08T03:43:07;67.67;;;28.17;;
19235;SDS011;9752;54.270;12.470;2024-03-08T03:48:10;53.67;;;28.63;;
19235;SDS011;9752;54.270;12.470;2024-03-08T03:53:13;50.63;;;26.50;;
19235;SDS011;9752;54.270;12.470;2024-03-08T03:58:14;59.07;;;31.83;;
19235;SDS011;9752;54.270;12.470;2024-03-08T04:03:16;85.13;;;36.53;;
19235;SDS011;9752;54.270;12.470;2024-03-08T04:08:19;78.03;;;36.27;;
19235;SDS011;9752;54.270;12.470;2024-03-08T04:13:21;67.40;;;33.60;;
19235;SDS011;9752;54.270;12.470;2024-03-08T04:18:22;93.03;;;40.70;;
19235;SDS011;9752;54.270;12.470;2024-03-08T04:23:25;86.00;;;40.83;;
19235;SDS011;9752;54.270;12.470;2024-03-08T04:28:28;94.73;;;40.97;;
19235;SDS011;9752;54.270;12.470;2024-03-08T04:33:30;100.53;;;42.60;;
19235;SDS011;9752;54.270;12.470;2024-03-08T04:38:33;97.63;;;43.57;;
19235;SDS011;9752;54.270;12.470;2024-03-08T04:43:34;110.37;;;45.47;;
19235;SDS011;9752;54.270;12.470;2024-03-08T04:48:36;99.70;;;43.83;;
19235;SDS011;9752;54.270;12.470;2024-03-08T04:53:39;182.20;;;59.70;;
19235;SDS011;9752;54.270;12.470;2024-03-08T04:58:40;104.87;;;40.40;;
19235;SDS011;9752;54.270;12.470;2024-03-08T05:03:42;138.00;;;52.90;;
19235;SDS011;9752;54.270;12.470;2024-03-08T05:08:45;108.57;;;44.43;;
19235;SDS011;9752;54.270;12.470;2024-03-08T05:13:46;186.37;;;63.53;;
19235;SDS011;9752;54.270;12.470;2024-03-08T05:18:48;183.67;;;60.90;;
19235;SDS011;9752;54.270;12.470;2024-03-08T05:23:52;239.93;;;72.03;;
19235;SDS011;9752;54.270;12.470;2024-03-08T05:28:54;161.60;;;58.10;;
19235;SDS011;9752;54.270;12.470;2024-03-08T05:33:56;225.43;;;67.70;;
19235;SDS011;9752;54.270;12.470;2024-03-08T05:38:59;142.57;;;48.87;;
19235;SDS011;9752;54.270;12.470;2024-03-08T05:44:01;376.23;;;96.43;;
19235;SDS011;9752;54.270;12.470;2024-03-08T05:49:03;295.67;;;67.10;;
19235;SDS011;9752;54.270;12.470;2024-03-08T05:54:07;291.20;;;78.70;;
19235;SDS011;9752;54.270;12.470;2024-03-08T05:59:10;100.80;;;43.93;;
19235;SDS011;9752;54.270;12.470;2024-03-08T06:04:12;91.83;;;40.47;;
19235;SDS011;9752;54.270;12.470;2024-03-08T06:09:15;148.17;;;48.80;;
19235;SDS011;9752;54.270;12.470;2024-03-08T06:14:23;220.43;;;64.50;;
19235;SDS011;9752;54.270;12.470;2024-03-08T06:19:24;323.27;;;72.13;;
19235;SDS011;9752;54.270;12.470;2024-03-08T06:24:28;197.40;;;55.67;;
19235;SDS011;9752;54.270;12.470;2024-03-08T06:29:29;84.70;;;32.73;;
19235;SDS011;9752;54.270;12.470;2024-03-08T06:34:32;180.23;;;50.10;;
19235;SDS011;9752;54.270;12.470;2024-03-08T06:39:36;293.33;;;73.33;;
19235;SDS011;9752;54.270;12.470;2024-03-08T06:44:37;151.67;;;44.10;;
19235;SDS011;9752;54.270;12.470;2024-03-08T06:49:45;349.90;;;82.90;;
19235;SDS011;9752;54.270;12.470;2024-03-08T06:54:48;71.53;;;34.17;;
19235;SDS011;9752;54.270;12.470;2024-03-08T06:59:52;150.83;;;49.93;;
19235;SDS011;9752;54.270;12.470;2024-03-08T07:04:54;203.93;;;53.37;;
19235;SDS011;9752;54.270;12.470;2024-03-08T07:09:57;291.97;;;75.93;;
19235;SDS011;9752;54.270;12.470;2024-03-08T07:14:59;213.30;;;63.77;;
19235;SDS011;9752;54.270;12.470;2024-03-08T07:20:00;141.13;;;48.70;;
19235;SDS011;9752;54.270;12.470;2024-03-08T07:25:12;162.30;;;52.13;;
19235;SDS011;9752;54.270;12.470;2024-03-08T07:30:21;92.87;;;37.83;;
19235;SDS011;9752;54.270;12.470;2024-03-08T07:36:00;55.87;;;28.33;;
19235;SDS011;9752;54.270;12.470;2024-03-08T07:41:05;96.70;;;39.17;;
19235;SDS011;9752;54.270;12.470;2024-03-08T07:46:07;64.63;;;32.63;;
19235;SDS011;9752;54.270;12.470;2024-03-08T07:51:10;64.47;;;33.37;;
19235;SDS011;9752;54.270;12.470;2024-03-08T07:56:13;94.50;;;42.23;;
19235;SDS011;9752;54.270;12.470;2024-03-08T08:01:16;71.93;;;34.27;;
19235;SDS011;9752;54.270;12.470;2024-03-08T08:06:18;80.17;;;38.97;;
19235;SDS011;9752;54.270;12.470;2024-03-08T08:11:21;76.23;;;36.07;;
19235;SDS011;9752;54.270;12.470;2024-03-08T08:16:23;67.13;;;33.00;;
19235;SDS011;9752;54.270;12.470;2024-03-08T08:21:25;62.50;;;31.50;;
19235;SDS011;9752;54.270;12.470;2024-03-08T08:26:28;66.43;;;35.50;;
19235;SDS011;9752;54.270;12.470;2024-03-08T08:31:31;58.80;;;31.10;;
19235;SDS011;9752;54.270;12.470;2024-03-08T08:36:33;67.03;;;36.03;;
19235;SDS011;9752;54.270;12.470;2024-03-08T08:41:36;63.67;;;33.70;;
19235;SDS011;9752;54.270;12.470;2024-03-08T08:46:38;58.93;;;31.20;;
19235;SDS011;9752;54.270;12.470;2024-03-08T08:51:39;55.30;;;31.23;;
19235;SDS011;9752;54.270;12.470;2024-03-08T08:56:42;50.67;;;30.07;;
19235;SDS011;9752;54.270;12.470;2024-03-08T09:01:44;52.33;;;27.47;;
19235;SDS011;9752;54.270;12.470;2024-03-08T09:06:47;42.63;;;26.07;;
19235;SDS011;9752;54.270;12.470;2024-03-08T09:11:50;45.43;;;27.93;;
19235;SDS011;9752;54.270;12.470;2024-03-08T09:16:51;42.60;;;24.97;;
19235;SDS011;9752;54.270;12.470;2024-03-08T09:21:53;40.67;;;25.77;;
19235;SDS011;9752;54.270;12.470;2024-03-08T09:26:55;32.70;;;23.00;;
19235;SDS011;9752;54.270;12.470;2024-03-08T09:31:58;37.23;;;24.43;;
19235;SDS011;9752;54.270;12.470;2024-03-08T09:37:00;37.73;;;23.90;;
19235;SDS011;9752;54.270;12.470;2024-03-08T09:42:06;34.00;;;23.07;;
19235;SDS011;9752;54.270;12.470;2024-03-08T09:47:07;36.17;;;23.30;;
19235;SDS011;9752;54.270;12.470;2024-03-08T09:52:14;34.10;;;22.67;;
19235;SDS011;9752;54.270;12.470;2024-03-08T09:57:18;33.73;;;22.50;;
19235;SDS011;9752;54.270;12.470;2024-03-08T10:02:20;31.50;;;23.07;;
19235;SDS011;9752;54.270;12.470;2024-03-08T10:07:23;33.10;;;23.40;;
19235;SDS011;9752;54.270;12.470;2024-03-08T10:12:25;32.87;;;23.00;;
19235;SDS011;9752;54.270;12.470;2024-03-08T10:17:28;30.20;;;22.30;;
19235;SDS011;9752;54.270;12.470;2024-03-08T10:22:32;34.43;;;24.27;;
19235;SDS011;9752;54.270;12.470;2024-03-08T10:27:35;35.53;;;24.50;;
19235;SDS011;9752;54.270;12.470;2024-03-08T10:32:37;34.30;;;22.93;;
19235;SDS011;9752;54.270;12.470;2024-03-08T10:37:40;32.63;;;24.93;;
19235;SDS011;9752;54.270;12.470;2024-03-08T10:42:50;32.53;;;24.67;;
19235;SDS011;9752;54.270;12.470;2024-03-08T10:47:55;30.63;;;23.20;;
19235;SDS011;9752;54.270;12.470;2024-03-08T10:53:08;34.23;;;23.90;;
19235;SDS011;9752;54.270;12.470;2024-03-08T10:58:14;34.40;;;23.63;;
19235;SDS011;9752;54.270;12.470;2024-03-08T11:08:45;30.37;;;23.70;;
19235;SDS011;9752;54.270;12.470;2024-03-08T11:13:51;31.60;;;24.27;;
19235;SDS011;9752;54.270;12.470;2024-03-08T11:18:53;30.27;;;24.23;;
19235;SDS011;9752;54.270;12.470;2024-03-08T11:23:58;28.20;;;22.63;;
19235;SDS011;9752;54.270;12.470;2024-03-08T11:34:40;32.80;;;23.60;;
19235;SDS011;9752;54.270;12.470;2024-03-08T11:39:47;29.73;;;24.03;;
19235;SDS011;9752;54.270;12.470;2024-03-08T11:44:51;32.67;;;24.93;;
19235;SDS011;9752;54.270;12.470;2024-03-08T11:49:54;31.67;;;25.13;;
19235;SDS011;9752;54.270;12.470;2024-03-08T11:54:56;31.77;;;24.40;;
19235;SDS011;9752;54.270;12.470;2024-03-08T11:59:59;29.87;;;24.37;;
19235;SDS011;9752;54.270;12.470;2024-03-08T12:05:08;27.70;;;23.23;;
19235;SDS011;9752;54.270;12.470;2024-03-08T12:10:14;24.73;;;22.03;;
19235;SDS011;9752;54.270;12.470;2024-03-08T12:15:19;26.90;;;24.10;;
19235;SDS011;9752;54.270;12.470;2024-03-08T12:20:22;29.17;;;22.83;;
19235;SDS011;9752;54.270;12.470;2024-03-08T12:25:26;27.10;;;23.30;;
19235;SDS011;9752;54.270;12.470;2024-03-08T12:30:31;26.30;;;23.50;;
19235;SDS011;9752;54.270;12.470;2024-03-08T12:35:34;29.17;;;23.90;;
19235;SDS011;9752;54.270;12.470;2024-03-08T12:40:35;26.97;;;23.47;;
19235;SDS011;9752;54.270;12.470;2024-03-08T12:45:43;27.57;;;22.13;;
19235;SDS011;9752;54.270;12.470;2024-03-08T12:50:45;28.40;;;23.27;;
19235;SDS011;9752;54.270;12.470;2024-03-08T12:55:47;30.70;;;23.30;;
19235;SDS011;9752;54.270;12.470;2024-03-08T13:00:51;30.23;;;23.73;;
19235;SDS011;9752;54.270;12.470;2024-03-08T13:05:53;28.67;;;23.50;;
19235;SDS011;9752;54.270;12.470;2024-03-08T13:10:54;29.67;;;24.20;;
19235;SDS011;9752;54.270;12.470;2024-03-08T13:15:57;32.60;;;23.30;;
19235;SDS011;9752;54.270;12.470;2024-03-08T13:21:01;28.87;;;23.40;;
19235;SDS011;9752;54.270;12.470;2024-03-08T13:26:06;31.13;;;22.90;;
19235;SDS011;9752;54.270;12.470;2024-03-08T13:31:10;27.43;;;22.40;;
19235;SDS011;9752;54.270;12.470;2024-03-08T13:36:11;26.90;;;22.90;;
19235;SDS011;9752;54.270;12.470;2024-03-08T13:41:16;31.97;;;23.87;;
19235;SDS011;9752;54.270;12.470;2024-03-08T13:46:22;26.63;;;23.40;;
19235;SDS011;9752;54.270;12.470;2024-03-08T13:51:24;27.87;;;22.73;;
19235;SDS011;9752;54.270;12.470;2024-03-08T13:56:26;33.03;;;23.27;;
19235;SDS011;9752;54.270;12.470;2024-03-08T14:01:31;30.50;;;24.03;;
19235;SDS011;9752;54.270;12.470;2024-03-08T14:06:35;33.07;;;23.47;;
19235;SDS011;9752;54.270;12.470;2024-03-08T14:11:37;32.60;;;24.07;;
19235;SDS011;9752;54.270;12.470;2024-03-08T14:16:40;28.80;;;22.30;;
19235;SDS011;9752;54.270;12.470;2024-03-08T14:21:43;31.17;;;23.50;;
19235;SDS011;9752;54.270;12.470;2024-03-08T14:26:45;32.83;;;23.90;;
19235;SDS011;9752;54.270;12.470;2024-03-08T14:31:50;26.80;;;21.87;;
19235;SDS011;9752;54.270;12.470;2024-03-08T14:36:51;31.13;;;21.77;;
19235;SDS011;9752;54.270;12.470;2024-03-08T14:41:53;30.33;;;22.37;;
19235;SDS011;9752;54.270;12.470;2024-03-08T14:46:57;30.07;;;23.47;;
19235;SDS011;9752;54.270;12.470;2024-03-08T14:51:59;30.73;;;22.73;;
19235;SDS011;9752;54.270;12.470;2024-03-08T14:57:01;31.83;;;22.03;;
19235;SDS011;9752;54.270;12.470;2024-03-08T15:02:04;35.03;;;22.63;;
19235;SDS011;9752;54.270;12.470;2024-03-08T15:07:07;29.67;;;23.07;;
19235;SDS011;9752;54.270;12.470;2024-03-08T15:12:10;26.63;;;22.57;;
19235;SDS011;9752;54.270;12.470;2024-03-08T15:17:13;30.30;;;25.43;;
19235;SDS011;9752;54.270;12.470;2024-03-08T15:22:21;30.60;;;25.57;;
19235;SDS011;9752;54.270;12.470;2024-03-08T15:27:23;27.87;;;25.07;;
19235;SDS011;9752;54.270;12.470;2024-03-08T15:32:26;29.03;;;25.93;;
19235;SDS011;9752;54.270;12.470;2024-03-08T15:37:32;30.40;;;27.23;;
19235;SDS011;9752;54.270;12.470;2024-03-08T15:42:34;27.23;;;24.77;;
19235;SDS011;9752;54.270;12.470;2024-03-08T15:47:36;28.53;;;25.67;;
19235;SDS011;9752;54.270;12.470;2024-03-08T15:52:38;27.47;;;24.97;;
19235;SDS011;9752;54.270;12.470;2024-03-08T15:57:40;28.33;;;25.60;;
19235;SDS011;9752;54.270;12.470;2024-03-08T16:02:43;26.30;;;23.90;;
19235;SDS011;9752;54.270;12.470;2024-03-08T16:07:45;24.13;;;22.13;;
19235;SDS011;9752;54.270;12.470;2024-03-08T16:12:46;25.70;;;23.33;;
19235;SDS011;9752;54.270;12.470;2024-03-08T16:17:49;25.80;;;23.33;;
19235;SDS011;9752;54.270;12.470;2024-03-08T16:22:51;27.00;;;24.37;;
19235;SDS011;9752;54.270;12.470;2024-03-08T16:27:52;26.07;;;23.67;;
19235;SDS011;9752;54.270;12.470;2024-03-08T16:32:55;28.17;;;25.43;;
19235;SDS011;9752;54.270;12.470;2024-03-08T16:37:57;28.40;;;25.70;;
19235;SDS011;9752;54.270;12.470;2024-03-08T16:42:59;27.10;;;24.53;;
19235;SDS011;9752;54.270;12.470;2024-03-08T16:48:01;27.23;;;24.53;;
19235;SDS011;9752;54.270;12.470;2024-03-08T16:53:03;27.97;;;25.00;;
19235;SDS011;9752;54.270;12.470;2024-03-08T16:58:05;26.10;;;23.17;;
19235;SDS011;9752;54.270;12.470;2024-03-08T17:03:11;27.07;;;22.63;;
19235;SDS011;9752;54.270;12.470;2024-03-08T17:08:13;26.43;;;22.60;;
19235;SDS011;9752;54.270;12.470;2024-03-08T17:13:17;26.60;;;23.00;;
19235;SDS011;9752;54.270;12.470;2024-03-08T17:18:21;28.07;;;21.23;;
19235;SDS011;9752;54.270;12.470;2024-03-08T17:23:23;30.37;;;21.37;;
19235;SDS011;9752;54.270;12.470;2024-03-08T17:28:26;24.77;;;19.73;;
19235;SDS011;9752;54.270;12.470;2024-03-08T17:33:29;27.67;;;19.97;;
19235;SDS011;9752;54.270;12.470;2024-03-08T17:38:35;30.80;;;20.03;;
19235;SDS011;9752;54.270;12.470;2024-03-08T17:43:45;26.70;;;19.47;;
19235;SDS011;9752;54.270;12.470;2024-03-08T17:48:48;30.07;;;19.37;;
19235;SDS011;9752;54.270;12.470;2024-03-08T17:53:49;29.03;;;19.63;;
19235;SDS011;9752;54.270;12.470;2024-03-08T17:58:51;28.10;;;19.07;;
19235;SDS011;9752;54.270;12.470;2024-03-08T18:03:54;28.67;;;19.43;;
19235;SDS011;9752;54.270;12.470;2024-03-08T18:08:56;36.07;;;21.17;;
19235;SDS011;9752;54.270;12.470;2024-03-08T18:13:58;30.57;;;19.67;;
19235;SDS011;9752;54.270;12.470;2024-03-08T18:19:01;31.13;;;19.67;;
19235;SDS011;9752;54.270;12.470;2024-03-08T18:24:07;29.97;;;19.27;;
19235;SDS011;9752;54.270;12.470;2024-03-08T18:29:09;35.73;;;20.40;;
19235;SDS011;9752;54.270;12.470;2024-03-08T18:34:12;29.93;;;17.83;;
19235;SDS011;9752;54.270;12.470;2024-03-08T18:39:14;30.40;;;18.20;;
19235;SDS011;9752;54.270;12.470;2024-03-08T18:44:18;28.50;;;17.47;;
19235;SDS011;9752;54.270;12.470;2024-03-08T18:49:21;29.83;;;17.13;;
19235;SDS011;9752;54.270;12.470;2024-03-08T18:54:23;27.07;;;17.93;;
19235;SDS011;9752;54.270;12.470;2024-03-08T18:59:26;24.53;;;16.30;;
19235;SDS011;9752;54.270;12.470;2024-03-08T19:04:29;27.17;;;19.13;;
19235;SDS011;9752;54.270;12.470;2024-03-08T19:09:31;29.33;;;18.73;;
19235;SDS011;9752;54.270;12.470;2024-03-08T19:14:33;24.80;;;15.60;;
19235;SDS011;9752;54.270;12.470;2024-03-08T19:19:39;25.23;;;15.80;;
19235;SDS011;9752;54.270;12.470;2024-03-08T19:24:40;26.37;;;16.73;;
19235;SDS011;9752;54.270;12.470;2024-03-08T19:29:42;24.87;;;16.90;;
19235;SDS011;9752;54.270;12.470;2024-03-08T19:34:45;26.67;;;17.20;;
19235;SDS011;9752;54.270;12.470;2024-03-08T19:39:46;29.47;;;19.63;;
19235;SDS011;9752;54.270;12.470;2024-03-08T19:44:48;38.27;;;22.87;;
19235;SDS011;9752;54.270;12.470;2024-03-08T19:49:53;38.67;;;23.13;;
19235;SDS011;9752;54.270;12.470;2024-03-08T19:54:54;29.27;;;19.07;;
19235;SDS011;9752;54.270;12.470;2024-03-08T19:59:57;28.53;;;17.07;;
19235;SDS011;9752;54.270;12.470;2024-03-08T20:05:00;27.07;;;16.33;;
19235;SDS011;9752;54.270;12.470;2024-03-08T20:10:04;26.90;;;16.23;;
19235;SDS011;9752;54.270;12.470;2024-03-08T20:15:10;23.73;;;15.07;;
19235;SDS011;9752;54.270;12.470;2024-03-08T20:20:15;25.63;;;14.43;;
19235;SDS011;9752;54.270;12.470;2024-03-08T20:25:19;24.30;;;14.90;;
19235;SDS011;9752;54.270;12.470;2024-03-08T20:30:22;23.67;;;14.73;;
19235;SDS011;9752;54.270;12.470;2024-03-08T20:35:27;24.07;;;14.03;;
19235;SDS011;9752;54.270;12.470;2024-03-08T20:40:29;20.30;;;14.33;;
19235;SDS011;9752;54.270;12.470;2024-03-08T20:45:37;23.03;;;13.33;;
19235;SDS011;9752;54.270;12.470;2024-03-08T20:50:40;20.30;;;13.77;;
19235;SDS011;9752;54.270;12.470;2024-03-08T20:55:42;20.30;;;13.07;;
19235;SDS011;9752;54.270;12.470;2024-03-08T21:00:44;19.67;;;12.50;;
19235;SDS011;9752;54.270;12.470;2024-03-08T21:05:55;21.63;;;12.80;;
19235;SDS011;9752;54.270;12.470;2024-03-08T21:10:58;19.77;;;12.07;;
19235;SDS011;9752;54.270;12.470;2024-03-08T21:15:59;23.03;;;13.13;;
19235;SDS011;9752;54.270;12.470;2024-03-08T21:21:02;17.87;;;11.53;;
19235;SDS011;9752;54.270;12.470;2024-03-08T21:26:04;18.23;;;13.30;;
19235;SDS011;9752;54.270;12.470;2024-03-08T21:31:08;23.27;;;13.77;;
19235;SDS011;9752;54.270;12.470;2024-03-08T21:36:12;20.83;;;13.10;;
19235;SDS011;9752;54.270;12.470;2024-03-08T21:41:13;18.13;;;11.47;;
19235;SDS011;9752;54.270;12.470;2024-03-08T21:46:15;23.50;;;13.63;;
19235;SDS011;9752;54.270;12.470;2024-03-08T21:51:18;26.83;;;14.07;;
19235;SDS011;9752;54.270;12.470;2024-03-08T21:56:19;19.57;;;13.10;;
19235;SDS011;9752;54.270;12.470;2024-03-08T22:01:21;26.53;;;13.53;;
19235;SDS011;9752;54.270;12.470;2024-03-08T22:06:24;19.67;;;13.23;;
19235;SDS011;9752;54.270;12.470;2024-03-08T22:11:27;23.43;;;12.73;;
19235;SDS011;9752;54.270;12.470;2024-03-08T22:16:29;20.37;;;13.13;;
19235;SDS011;9752;54.270;12.470;2024-03-08T22:21:34;20.10;;;12.53;;
19235;SDS011;9752;54.270;12.470;2024-03-08T22:26:36;22.40;;;12.40;;
19235;SDS011;9752;54.270;12.470;2024-03-08T22:31:37;23.63;;;11.97;;
19235;SDS011;9752;54.270;12.470;2024-03-08T22:36:41;20.00;;;11.70;;
19235;SDS011;9752;54.270;12.470;2024-03-08T22:41:43;20.70;;;11.33;;
19235;SDS011;9752;54.270;12.470;2024-03-08T22:46:45;19.83;;;12.17;;
19235;SDS011;9752;54.270;12.470;2024-03-08T22:51:47;18.60;;;11.43;;
19235;SDS011;9752;54.270;12.470;2024-03-08T22:56:49;21.37;;;11.00;;
19235;SDS011;9752;54.270;12.470;2024-03-08T23:01:51;16.77;;;10.20;;
19235;SDS011;9752;54.270;12.470;2024-03-08T23:06:54;16.97;;;10.43;;
19235;SDS011;9752;54.270;12.470;2024-03-08T23:11:56;15.80;;;9.60;;
19235;SDS011;9752;54.270;12.470;2024-03-08T23:16:57;21.63;;;10.43;;
19235;SDS011;9752;54.270;12.470;2024-03-08T23:22:01;17.07;;;10.23;;
19235;SDS011;9752;54.270;12.470;2024-03-08T23:27:03;14.20;;;9.70;;
19235;SDS011;9752;54.270;12.470;2024-03-08T23:32:06;16.80;;;10.20;;
19235;SDS011;9752;54.270;12.470;2024-03-08T23:37:09;18.97;;;10.13;;
19235;SDS011;9752;54.270;12.470;2024-03-08T23:42:10;17.37;;;9.80;;
19235;SDS011;9752;54.270;12.470;2024-03-08T23:47:13;17.73;;;10.70;;
19235;SDS011;9752;54.270;12.470;2024-03-08T23:52:16;16.53;;;9.83;;
19235;SDS011;9752;54.270;12.470;2024-03-08T23:57:18;16.93;;;10.43;;
